createdAt,value
2022-12-07T00:01:40.787Z,-2.54
2022-12-07T00:04:11.979Z,-2.42
2022-12-07T00:06:41.411Z,-2.33
2022-12-07T00:09:12.513Z,-2.33
2022-12-07T00:11:40.721Z,-2.30
2022-12-07T00:14:12.265Z,-2.31
2022-12-07T00:16:42.016Z,-2.45
2022-12-07T00:19:13.331Z,-2.58
2022-12-07T00:21:41.599Z,-2.68
2022-12-07T00:24:09.899Z,-2.71
2022-12-07T00:26:40.150Z,-2.73
2022-12-07T00:29:13.779Z,-2.68
2022-12-07T00:31:43.318Z,-2.67
2022-12-07T00:34:15.755Z,-2.64
2022-12-07T00:36:44.225Z,-2.62
2022-12-07T00:39:12.634Z,-2.56
2022-12-07T00:41:40.919Z,-2.57
2022-12-07T00:44:08.995Z,-2.57
2022-12-07T00:46:37.226Z,-2.58
2022-12-07T00:49:06.697Z,-2.68
2022-12-07T00:51:34.864Z,-2.66
2022-12-07T00:54:02.911Z,-2.53
2022-12-07T00:56:31.823Z,-2.44
2022-12-07T00:59:01.486Z,-2.42
2022-12-07T01:01:31.504Z,-2.53
2022-12-07T01:04:02.254Z,-2.60
2022-12-07T01:06:32.654Z,-2.58
2022-12-07T01:09:01.404Z,-2.59
2022-12-07T01:11:31.410Z,-2.58
2022-12-07T01:14:01.286Z,-2.52
2022-12-07T01:16:31.857Z,-2.50
2022-12-07T01:19:01.455Z,-2.47
2022-12-07T01:21:35.679Z,-2.47
2022-12-07T01:24:04.590Z,-2.44
2022-12-07T01:26:33.050Z,-2.49
2022-12-07T01:29:01.904Z,-2.52
2022-12-07T01:31:30.648Z,-2.48
2022-12-07T01:34:01.134Z,-2.39
2022-12-07T01:36:32.404Z,-2.41
2022-12-07T01:39:02.455Z,-2.38
2022-12-07T01:41:34.312Z,-2.36
2022-12-07T01:44:22.801Z,-2.36
2022-12-07T01:46:52.285Z,-2.32
2022-12-07T01:49:27.177Z,-2.27
2022-12-07T01:52:03.024Z,-2.21
2022-12-07T01:54:31.252Z,-2.14
2022-12-07T01:57:00.447Z,-2.06
2022-12-07T01:59:28.784Z,-2.01
2022-12-07T02:01:58.272Z,-2.00
2022-12-07T02:04:26.815Z,-1.99
2022-12-07T02:06:57.916Z,-2.01
2022-12-07T02:09:26.066Z,-2.00
2022-12-07T02:11:57.164Z,-2.03
2022-12-07T02:14:25.416Z,-2.08
2022-12-07T02:17:07.484Z,-2.13
2022-12-07T02:20:06.688Z,-2.20
2022-12-07T02:23:02.535Z,-2.30
2022-12-07T02:25:47.005Z,-2.42
2022-12-07T02:28:29.111Z,-2.47
2022-12-07T02:31:05.019Z,-2.57
2022-12-07T02:33:38.779Z,-2.59
2022-12-07T02:36:11.514Z,-2.56
2022-12-07T02:38:45.866Z,-2.58
2022-12-07T02:41:20.030Z,-2.66
2022-12-07T02:43:52.994Z,-2.81
2022-12-07T02:46:26.063Z,-2.94
2022-12-07T02:48:55.507Z,-2.97
2022-12-07T02:51:24.265Z,-2.95
2022-12-07T02:53:52.436Z,-2.93
2022-12-07T02:56:31.311Z,-2.93
2022-12-07T02:59:10.003Z,-2.92
2022-12-07T03:01:52.072Z,-3.04
2022-12-07T03:04:39.894Z,-3.11
2022-12-07T03:07:18.027Z,-3.11
2022-12-07T03:09:53.493Z,-3.06
2022-12-07T03:12:29.009Z,-3.11
2022-12-07T03:15:02.444Z,-3.14
2022-12-07T03:17:36.616Z,-3.16
2022-12-07T03:20:08.774Z,-3.25
2022-12-07T03:22:41.025Z,-3.24
2022-12-07T03:25:13.173Z,-3.32
2022-12-07T03:27:47.026Z,-3.35
2022-12-07T03:30:19.375Z,-3.35
2022-12-07T03:32:54.803Z,-3.27
2022-12-07T03:35:27.967Z,-3.34
2022-12-07T03:37:59.985Z,-3.39
2022-12-07T03:40:33.063Z,-3.44
2022-12-07T03:43:03.637Z,-3.45
2022-12-07T03:45:39.194Z,-3.40
2022-12-07T03:48:17.972Z,-3.38
2022-12-07T03:50:53.537Z,-3.41
2022-12-07T03:53:26.737Z,-3.45
2022-12-07T03:55:56.564Z,-3.44
2022-12-07T03:58:26.333Z,-3.47
2022-12-07T04:00:54.584Z,-3.47
2022-12-07T04:03:24.047Z,-3.41
2022-12-07T04:05:52.344Z,-3.32
2022-12-07T04:08:20.509Z,-3.29
2022-12-07T04:10:48.705Z,-3.43
2022-12-07T04:13:16.795Z,-3.51
2022-12-07T04:15:45.032Z,-3.46
2022-12-07T04:18:13.190Z,-3.38
2022-12-07T04:20:42.624Z,-3.38
2022-12-07T04:23:10.796Z,-3.41
2022-12-07T04:25:38.984Z,-3.38
2022-12-07T04:28:07.126Z,-3.39
2022-12-07T04:30:35.264Z,-3.45
2022-12-07T04:33:03.353Z,-3.47
2022-12-07T04:35:31.574Z,-3.45
2022-12-07T04:38:00.923Z,-3.53
2022-12-07T04:40:29.076Z,-3.71
2022-12-07T04:42:57.188Z,-3.72
2022-12-07T04:45:25.343Z,-3.64
2022-12-07T04:47:53.414Z,-3.64
2022-12-07T04:50:21.521Z,-3.63
2022-12-07T04:52:49.623Z,-3.61
2022-12-07T04:55:19.183Z,-3.64
2022-12-07T04:57:47.304Z,-3.73
2022-12-07T05:00:15.641Z,-3.77
2022-12-07T05:02:43.736Z,-3.71
2022-12-07T05:05:11.927Z,-3.68
2022-12-07T05:07:40.181Z,-3.70
2022-12-07T05:10:09.259Z,-3.67
2022-12-07T05:12:38.714Z,-3.64
2022-12-07T05:15:07.564Z,-3.59
2022-12-07T05:17:35.723Z,-3.52
2022-12-07T05:20:04.518Z,-3.56
2022-12-07T05:22:32.953Z,-3.62
2022-12-07T05:25:01.075Z,-3.66
2022-12-07T05:27:29.195Z,-3.61
2022-12-07T05:29:58.731Z,-3.61
2022-12-07T05:32:26.913Z,-3.58
2022-12-07T05:34:55.859Z,-3.54
2022-12-07T05:37:23.977Z,-3.62
2022-12-07T05:39:52.134Z,-3.66
2022-12-07T05:42:20.294Z,-3.71
2022-12-07T05:44:48.966Z,-3.78
2022-12-07T05:47:18.730Z,-3.90
2022-12-07T05:49:47.062Z,-3.86
2022-12-07T05:52:15.185Z,-3.75
2022-12-07T05:54:43.468Z,-3.72
2022-12-07T05:57:11.704Z,-3.67
2022-12-07T05:59:38.931Z,-3.71
2022-12-07T06:02:09.005Z,-3.72
2022-12-07T06:04:41.754Z,-3.71
2022-12-07T06:07:11.066Z,-3.74
2022-12-07T06:09:39.903Z,-3.83
2022-12-07T06:12:26.139Z,-3.92
2022-12-07T06:14:54.305Z,-3.89
2022-12-07T06:17:22.533Z,-3.91
2022-12-07T06:19:52.024Z,-3.83
2022-12-07T06:22:20.261Z,-3.87
2022-12-07T06:24:48.452Z,-4.00
2022-12-07T06:27:16.644Z,-4.02
2022-12-07T06:29:44.775Z,-3.91
2022-12-07T06:32:13.246Z,-4.00
2022-12-07T06:34:41.628Z,-3.98
2022-12-07T06:37:11.115Z,-3.88
2022-12-07T06:39:39.913Z,-3.79
2022-12-07T06:42:08.113Z,-3.74
2022-12-07T06:44:36.285Z,-3.70
2022-12-07T06:47:38.917Z,-3.65
2022-12-07T06:49:53.900Z,-3.61
2022-12-07T06:52:23.405Z,-3.65
2022-12-07T06:54:51.590Z,-3.70
2022-12-07T06:57:21.317Z,-3.69
2022-12-07T06:59:49.552Z,-3.71
2022-12-07T07:02:17.980Z,-3.64
2022-12-07T07:04:46.284Z,-3.63
2022-12-07T07:07:14.410Z,-3.57
2022-12-07T07:09:43.883Z,-3.59
2022-12-07T07:12:12.094Z,-3.70
2022-12-07T07:14:40.294Z,-3.79
2022-12-07T07:17:08.519Z,-3.90
2022-12-07T07:19:37.495Z,-3.98
2022-12-07T07:22:06.361Z,-4.04
2022-12-07T07:24:34.538Z,-4.03
2022-12-07T07:27:03.984Z,-3.99
2022-12-07T07:29:32.182Z,-3.99
2022-12-07T07:32:06.240Z,-4.07
2022-12-07T07:34:35.118Z,-4.09
2022-12-07T07:37:03.348Z,-4.15
2022-12-07T07:39:31.540Z,-4.19
2022-12-07T07:41:59.768Z,-4.18
2022-12-07T07:44:35.057Z,-4.14
2022-12-07T07:47:04.075Z,-4.11
2022-12-07T07:49:32.917Z,-4.14
2022-12-07T07:52:01.191Z,-4.29
2022-12-07T07:54:29.802Z,-4.26
2022-12-07T07:56:57.991Z,-4.18
2022-12-07T07:59:26.876Z,-4.24
2022-12-07T08:01:56.371Z,-4.35
2022-12-07T08:04:24.811Z,-4.43
2022-12-07T08:06:53.234Z,-4.51
2022-12-07T08:09:21.504Z,-4.56
2022-12-07T08:11:49.678Z,-4.51
2022-12-07T08:14:17.836Z,-4.47
2022-12-07T08:16:46.035Z,-4.41
2022-12-07T08:19:15.504Z,-4.40
2022-12-07T08:21:43.849Z,-4.42
2022-12-07T08:24:11.966Z,-4.42
2022-12-07T08:26:40.165Z,-4.43
2022-12-07T08:29:08.458Z,-4.47
2022-12-07T08:31:37.439Z,-4.53
2022-12-07T08:34:05.766Z,-4.55
2022-12-07T08:36:35.283Z,-4.59
2022-12-07T08:41:51.674Z,-4.52
2022-12-07T08:44:19.806Z,-4.49
2022-12-07T08:46:52.592Z,-4.47
2022-12-07T08:49:25.026Z,-4.45
2022-12-07T08:51:54.943Z,-4.38
2022-12-07T08:54:23.753Z,-4.26
2022-12-07T08:56:58.794Z,-4.19
2022-12-07T08:59:29.212Z,-4.16
2022-12-07T09:01:57.664Z,-4.16
2022-12-07T09:04:25.952Z,-4.13
2022-12-07T09:06:56.688Z,-4.04
2022-12-07T09:09:25.035Z,-3.98
2022-12-07T09:11:53.183Z,-3.93
2022-12-07T09:14:21.412Z,-3.91
2022-12-07T09:16:49.547Z,-3.85
2022-12-07T09:19:17.767Z,-3.78
2022-12-07T09:21:46.172Z,-3.71
2022-12-07T09:24:16.069Z,-3.64
2022-12-07T09:26:45.522Z,-3.56
2022-12-07T09:29:13.759Z,-3.41
2022-12-07T09:31:42.703Z,-3.25
2022-12-07T09:34:11.364Z,-3.20
2022-12-07T09:36:39.521Z,-3.12
2022-12-07T09:39:07.769Z,-3.06
2022-12-07T09:41:40.815Z,-3.05
2022-12-07T09:44:13.711Z,-3.01
2022-12-07T09:46:44.916Z,-2.90
2022-12-07T09:49:18.873Z,-2.79
2022-12-07T09:51:47.174Z,-2.70
2022-12-07T09:54:17.455Z,-2.58
2022-12-07T09:56:47.142Z,-2.42
2022-12-07T09:59:20.566Z,-2.31
2022-12-07T10:01:50.408Z,-2.15
2022-12-07T10:04:22.397Z,-2.05
2022-12-07T10:06:52.232Z,-1.97
2022-12-07T10:09:22.989Z,-1.92
2022-12-07T10:12:12.499Z,-1.85
2022-12-07T10:15:10.096Z,-1.76
2022-12-07T10:17:41.947Z,-1.69
2022-12-07T10:20:17.780Z,-1.67
2022-12-07T10:23:05.777Z,-1.59
2022-12-07T10:25:36.069Z,-1.51
2022-12-07T10:28:15.673Z,-1.45
2022-12-07T10:30:54.345Z,-1.40
2022-12-07T10:33:50.496Z,-1.39
2022-12-07T10:36:22.492Z,-1.31
2022-12-07T10:38:52.603Z,-1.24
2022-12-07T10:41:21.349Z,-1.18
2022-12-07T10:43:54.854Z,-1.05
2022-12-07T10:46:56.145Z,-0.94
2022-12-07T10:49:50.791Z,-0.96
2022-12-07T10:52:26.201Z,-1.02
2022-12-07T10:55:07.202Z,-1.04
2022-12-07T10:57:49.663Z,-1.07
2022-12-07T11:00:21.439Z,-1.07
2022-12-07T11:03:07.341Z,-0.98
2022-12-07T11:05:42.902Z,-0.87
2022-12-07T11:08:21.303Z,-0.73
2022-12-07T11:10:56.398Z,-0.75
2022-12-07T11:13:30.955Z,-0.84
2022-12-07T11:16:23.497Z,-0.96
2022-12-07T11:19:07.832Z,-1.01
2022-12-07T11:21:41.273Z,-1.05
2022-12-07T11:24:16.212Z,-1.04
2022-12-07T11:27:00.662Z,-1.03
2022-12-07T11:29:47.525Z,-1.03
2022-12-07T11:32:23.260Z,-1.05
2022-12-07T11:35:07.825Z,-1.05
2022-12-07T11:40:19.343Z,-1.03
2022-12-07T11:42:53.762Z,-1.01
2022-12-07T11:45:28.238Z,-1.01
2022-12-07T11:48:03.003Z,-1.02
2022-12-07T11:50:38.428Z,-1.00
2022-12-07T11:53:16.504Z,-0.96
2022-12-07T11:55:52.598Z,-0.91
2022-12-07T11:58:36.119Z,-0.89
2022-12-07T12:01:16.433Z,-0.85
2022-12-07T12:03:53.025Z,-0.82
2022-12-07T12:06:22.668Z,-0.77
2022-12-07T12:15:09.031Z,-0.83
2022-12-07T12:18:02.673Z,-0.82
2022-12-07T12:20:35.652Z,-0.80
2022-12-07T12:23:13.813Z,-0.83
2022-12-07T12:25:44.867Z,-0.84
2022-12-07T12:28:26.334Z,-0.81
2022-12-07T12:31:32.455Z,-0.77
2022-12-07T12:34:02.919Z,-0.77
2022-12-07T12:36:48.640Z,-0.75
2022-12-07T12:42:07.959Z,-0.71
2022-12-07T12:45:06.243Z,-0.65
2022-12-07T12:47:55.891Z,-0.59
2022-12-07T12:50:28.709Z,-0.62
2022-12-07T12:53:22.093Z,-0.67
2022-12-07T12:56:24.034Z,-0.75
2022-12-07T12:59:23.670Z,-0.80
2022-12-07T13:01:53.336Z,-0.81
2022-12-07T13:04:29.262Z,-0.80
2022-12-07T13:07:54.612Z,-0.77
2022-12-07T13:10:40.509Z,-0.81
2022-12-07T13:13:41.763Z,-0.80
2022-12-07T13:16:47.389Z,-0.70
2022-12-07T13:19:52.860Z,-0.65
2022-12-07T13:22:43.069Z,-0.57
2022-12-07T13:25:14.633Z,-0.56
2022-12-07T13:27:49.342Z,-0.51
2022-12-07T13:30:19.960Z,-0.51
2022-12-07T13:32:55.093Z,-0.50
2022-12-07T13:35:41.920Z,-0.52
2022-12-07T13:38:26.919Z,-0.54
2022-12-07T13:41:21.073Z,-0.55
2022-12-07T13:43:54.980Z,-0.52
2022-12-07T13:46:26.886Z,-0.48
2022-12-07T13:48:56.584Z,-0.49
2022-12-07T13:51:27.237Z,-0.49
2022-12-07T13:53:57.515Z,-0.47
2022-12-07T13:56:33.894Z,-0.49
2022-12-07T13:59:03.752Z,-0.51
2022-12-07T14:01:33.947Z,-0.49
2022-12-07T14:04:20.532Z,-0.48
2022-12-07T14:06:51.965Z,-0.51
2022-12-07T14:09:23.427Z,-0.52
2022-12-07T14:11:54.149Z,-0.55
2022-12-07T14:14:29.516Z,-0.61
2022-12-07T14:17:04.265Z,-0.61
2022-12-07T14:19:53.221Z,-0.65
2022-12-07T14:22:31.276Z,-0.65
2022-12-07T14:25:04.138Z,-0.66
2022-12-07T14:27:37.215Z,-0.70
2022-12-07T14:30:08.192Z,-0.76
2022-12-07T14:32:39.662Z,-0.79
2022-12-07T14:35:13.059Z,-0.82
2022-12-07T14:37:42.681Z,-0.78
2022-12-07T14:40:15.792Z,-0.78
2022-12-07T14:42:45.458Z,-0.76
2022-12-07T14:45:18.405Z,-0.74
2022-12-07T14:50:39.736Z,-0.87
2022-12-07T14:53:33.839Z,-0.93
2022-12-07T14:56:02.246Z,-0.97
2022-12-07T14:58:30.363Z,-0.95
2022-12-07T15:00:59.875Z,-0.99
2022-12-07T15:03:28.161Z,-1.03
2022-12-07T15:05:56.526Z,-1.03
2022-12-07T15:08:24.989Z,-1.00
2022-12-07T15:10:53.279Z,-1.01
2022-12-07T15:13:39.149Z,-1.07
2022-12-07T15:16:13.341Z,-1.18
2022-12-07T15:18:45.433Z,-1.24
2022-12-07T15:21:26.770Z,-1.25
2022-12-07T15:23:55.929Z,-1.28
2022-12-07T15:26:24.191Z,-1.31
2022-12-07T15:28:52.429Z,-1.34
2022-12-07T15:31:53.824Z,-1.40
2022-12-07T15:34:10.138Z,-1.44
2022-12-07T15:36:38.440Z,-1.49
2022-12-07T15:39:14.517Z,-1.54
2022-12-07T15:41:44.378Z,-1.59
2022-12-07T15:44:31.597Z,-1.59
2022-12-07T15:47:02.032Z,-1.66
2022-12-07T15:49:30.482Z,-1.69
2022-12-07T15:51:58.688Z,-1.70
2022-12-07T15:54:29.402Z,-1.68
2022-12-07T15:56:58.411Z,-1.69
2022-12-07T15:59:29.128Z,-1.71
2022-12-07T16:01:57.723Z,-1.69
2022-12-07T16:04:29.244Z,-1.72
2022-12-07T16:06:57.653Z,-1.74
2022-12-07T16:09:26.438Z,-1.75
2022-12-07T16:11:54.870Z,-1.78
2022-12-07T16:14:23.151Z,-1.81
2022-12-07T16:16:51.368Z,-1.85
2022-12-07T16:19:19.612Z,-1.89
2022-12-07T16:21:49.200Z,-1.95
2022-12-07T16:24:17.751Z,-2.03
2022-12-07T16:26:50.140Z,-2.11
2022-12-07T16:29:20.862Z,-2.15
2022-12-07T16:31:49.518Z,-2.17
2022-12-07T16:34:18.632Z,-2.13
2022-12-07T16:37:03.894Z,-2.11
2022-12-07T16:39:33.262Z,-2.09
2022-12-07T16:42:01.512Z,-2.08
2022-12-07T16:44:29.881Z,-2.04
2022-12-07T16:46:58.069Z,-2.03
2022-12-07T16:49:26.408Z,-2.04
2022-12-07T16:52:18.351Z,-2.10
2022-12-07T16:54:44.241Z,-2.13
2022-12-07T16:57:18.148Z,-2.17
2022-12-07T16:59:50.032Z,-2.20
2022-12-07T17:02:18.265Z,-2.24
2022-12-07T17:04:46.480Z,-2.23
2022-12-07T17:07:15.952Z,-2.24
2022-12-07T17:09:44.223Z,-2.23
2022-12-07T17:12:12.445Z,-2.28
2022-12-07T17:14:57.980Z,-2.29
2022-12-07T17:17:26.232Z,-2.27
2022-12-07T17:19:54.372Z,-2.24
2022-12-07T17:22:23.881Z,-2.29
2022-12-07T17:24:51.942Z,-2.24
2022-12-07T17:27:20.231Z,-2.23
2022-12-07T17:29:48.411Z,-2.25
2022-12-07T17:32:16.826Z,-2.29
2022-12-07T17:34:44.962Z,-2.35
2022-12-07T17:37:13.446Z,-2.40
2022-12-07T17:39:42.991Z,-2.47
2022-12-07T17:42:28.890Z,-2.53
2022-12-07T17:44:57.221Z,-2.54
2022-12-07T17:47:25.368Z,-2.56
2022-12-07T17:49:53.844Z,-2.61
2022-12-07T17:52:39.663Z,-2.71
2022-12-07T17:55:09.794Z,-2.79
2022-12-07T17:57:37.991Z,-2.84
2022-12-07T18:00:08.749Z,-2.84
2022-12-07T18:02:40.424Z,-2.90
2022-12-07T18:05:10.032Z,-2.97
2022-12-07T18:07:38.362Z,-3.05
2022-12-07T18:10:09.286Z,-3.03
2022-12-07T18:12:40.454Z,-3.06
2022-12-07T18:15:09.210Z,-3.11
2022-12-07T18:17:37.334Z,-3.19
2022-12-07T18:20:06.652Z,-3.22
2022-12-07T18:22:34.810Z,-3.18
2022-12-07T18:25:03.598Z,-3.15
2022-12-07T18:27:32.050Z,-3.18
2022-12-07T18:30:01.533Z,-3.12
2022-12-07T18:32:31.029Z,-3.06
2022-12-07T18:34:59.658Z,-3.04
2022-12-07T18:37:28.500Z,-3.07
2022-12-07T18:39:58.461Z,-3.14
2022-12-07T18:42:26.671Z,-3.24
2022-12-07T18:44:54.864Z,-3.34
2022-12-07T18:47:24.384Z,-3.41
2022-12-07T18:49:52.632Z,-3.42
2022-12-07T18:52:29.075Z,-3.51
2022-12-07T18:55:01.811Z,-3.59
2022-12-07T18:57:33.515Z,-3.68
2022-12-07T19:00:01.701Z,-3.72
2022-12-07T19:02:31.265Z,-3.78
2022-12-07T19:05:02.663Z,-3.86
2022-12-07T19:07:31.271Z,-3.88
2022-12-07T19:09:59.441Z,-4.01
2022-12-07T19:12:28.457Z,-4.09
2022-12-07T19:14:56.780Z,-4.13
2022-12-07T19:17:24.958Z,-4.19
2022-12-07T19:19:54.611Z,-4.20
2022-12-07T19:22:24.243Z,-4.18
2022-12-07T19:24:54.076Z,-4.22
2022-12-07T19:27:23.443Z,-4.30
2022-12-07T19:29:51.785Z,-4.33
2022-12-07T19:32:20.453Z,-4.30
2022-12-07T19:34:49.301Z,-4.34
2022-12-07T19:37:19.425Z,-4.30
2022-12-07T19:39:51.868Z,-4.17
2022-12-07T19:42:20.740Z,-4.01
2022-12-07T19:44:48.950Z,-3.91
2022-12-07T19:47:17.738Z,-3.89
2022-12-07T19:49:47.134Z,-3.89
2022-12-07T19:52:15.696Z,-3.77
2022-12-07T19:54:45.118Z,-3.68
2022-12-07T19:57:16.149Z,-3.64
2022-12-07T19:59:44.563Z,-3.63
2022-12-07T20:02:14.784Z,-3.62
2022-12-07T20:04:43.294Z,-3.65
2022-12-07T20:07:11.452Z,-3.66
2022-12-07T20:09:39.731Z,-3.71
2022-12-07T20:12:28.583Z,-3.81
2022-12-07T20:14:56.892Z,-3.90
2022-12-07T20:17:25.158Z,-3.93
2022-12-07T20:19:53.445Z,-3.92
2022-12-07T20:22:21.662Z,-3.96
2022-12-07T20:24:49.963Z,-3.96
2022-12-07T20:27:20.263Z,-3.97
2022-12-07T20:29:49.789Z,-4.03
2022-12-07T20:32:17.922Z,-4.08
2022-12-07T20:34:46.943Z,-4.17
2022-12-07T20:37:15.170Z,-4.26
2022-12-07T20:39:43.288Z,-4.38
2022-12-07T20:42:29.572Z,-4.43
2022-12-07T20:45:03.086Z,-4.48
2022-12-07T20:47:31.963Z,-4.48
2022-12-07T20:50:00.141Z,-4.52
2022-12-07T20:52:28.526Z,-4.41
2022-12-07T20:54:56.634Z,-4.34
2022-12-07T20:57:24.843Z,-4.35
2022-12-07T20:59:53.008Z,-4.31
2022-12-07T21:02:22.516Z,-4.25
2022-12-07T21:04:50.671Z,-4.17
2022-12-07T21:07:19.002Z,-4.16
2022-12-07T21:09:47.379Z,-4.05
2022-12-07T21:12:16.418Z,-3.96
2022-12-07T21:14:45.230Z,-3.87
2022-12-07T21:17:13.603Z,-3.77
2022-12-07T21:19:43.031Z,-3.74
2022-12-07T21:22:11.259Z,-3.72
2022-12-07T21:24:39.838Z,-3.76
2022-12-07T21:27:08.976Z,-3.73
2022-12-07T21:29:43.592Z,-3.72
2022-12-07T21:32:12.602Z,-3.72
2022-12-07T21:34:42.932Z,-3.72
2022-12-07T21:37:11.282Z,-3.65
2022-12-07T21:39:39.545Z,-3.58
2022-12-07T21:42:07.728Z,-3.53
2022-12-07T21:44:41.620Z,-3.46
2022-12-07T21:47:12.464Z,-3.32
2022-12-07T21:49:42.088Z,-3.25
2022-12-07T21:52:10.232Z,-3.23
2022-12-07T21:54:40.497Z,-3.16
2022-12-07T21:57:08.581Z,-3.12
2022-12-07T21:59:36.735Z,-3.09
2022-12-07T22:02:04.842Z,-3.11
2022-12-07T22:04:33.080Z,-3.14
2022-12-07T22:07:02.584Z,-3.15
2022-12-07T22:09:30.837Z,-3.13
2022-12-07T22:11:59.130Z,-3.14
2022-12-07T22:14:44.761Z,-3.17
2022-12-07T22:17:12.990Z,-3.20
2022-12-07T22:19:41.100Z,-3.20
2022-12-07T22:22:14.346Z,-3.19
2022-12-07T22:24:42.831Z,-3.23
2022-12-07T22:27:10.989Z,-3.28
2022-12-07T22:29:39.891Z,-3.29
2022-12-07T22:32:31.883Z,-3.30
2022-12-07T22:34:56.882Z,-3.29
2022-12-07T22:37:28.351Z,-3.31
2022-12-07T22:39:56.602Z,-3.34
2022-12-07T22:42:25.349Z,-3.34
2022-12-07T22:44:53.541Z,-3.37
2022-12-07T22:47:21.733Z,-3.37
2022-12-07T22:49:51.454Z,-3.42
2022-12-07T22:52:19.652Z,-3.45
2022-12-07T22:54:49.212Z,-3.49
2022-12-07T22:57:17.343Z,-3.49
2022-12-07T22:59:45.646Z,-3.48
2022-12-07T23:02:13.969Z,-3.49
2022-12-07T23:04:42.295Z,-3.53
2022-12-07T23:07:10.461Z,-3.54
2022-12-07T23:09:38.734Z,-3.54
2022-12-07T23:12:26.108Z,-3.54
2022-12-07T23:14:54.778Z,-3.52
2022-12-07T23:17:22.912Z,-3.63
2022-12-07T23:19:55.541Z,-3.73
2022-12-07T23:22:24.514Z,-3.86
2022-12-07T23:24:52.667Z,-3.93
2022-12-07T23:27:22.222Z,-3.95
2022-12-07T23:29:50.537Z,-3.98
2022-12-07T23:32:18.681Z,-4.01
2022-12-07T23:34:46.851Z,-4.02
2022-12-07T23:37:15.001Z,-4.02
2022-12-07T23:39:43.101Z,-4.00
2022-12-07T23:42:11.331Z,-3.99
2022-12-07T23:44:40.798Z,-3.99
2022-12-07T23:47:08.951Z,-4.01
2022-12-07T23:49:37.173Z,-4.03
2022-12-07T23:52:05.634Z,-4.07
2022-12-07T23:54:33.768Z,-4.11
2022-12-07T23:57:01.984Z,-4.11
2022-12-07T23:59:30.105Z,-4.14
